Time;durP1;ratioP1;P1;durP2;ratioP2;P2;SDS_P1;SDS_P2;PMS_P1;PMS_P2;Temp;Humidity;BMP_temperature;BMP_pressure;BME280_temperature;BME280_humidity;BME280_pressure;Samples;Min_cycle;Max_cycle;Signal;HPM_P1;HPM_P2
2024/02/16 00:02:38;;;;;;;1.50;1.30;;;20.50;77.50;;;;;;4997961;28;20574;-67
2024/02/16 00:05:07;;;;;;;1.63;1.52;;;20.50;77.50;;;;;;4992765;28;20204;-68
2024/02/16 00:07:33;;;;;;;1.85;1.20;;;20.50;77.50;;;;;;4999248;28;20220;-67
2024/02/16 00:10:00;;;;;;;1.80;1.08;;;20.50;77.40;;;;;;5001503;28;20708;-67
2024/02/16 00:12:30;;;;;;;1.90;1.10;;;20.50;77.40;;;;;;5001291;28;20192;-67
2024/02/16 00:14:59;;;;;;;1.20;1.10;;;20.50;77.50;;;;;;4991069;28;20660;-67
2024/02/16 00:17:30;;;;;;;1.42;1.10;;;20.50;77.30;;;;;;4996815;28;20239;-67
2024/02/16 00:20:03;;;;;;;2.38;1.30;;;20.50;78.20;;;;;;5003119;28;20193;-67
2024/02/16 00:22:29;;;;;;;1.40;1.25;;;20.50;77.40;;;;;;5001575;28;20204;-67
2024/02/16 00:25:01;;;;;;;1.30;1.08;;;20.50;77.30;;;;;;5002043;28;20278;-67
2024/02/16 00:27:29;;;;;;;1.55;1.02;;;20.50;77.30;;;;;;4999327;28;20808;-67
2024/02/16 00:30:03;;;;;;;1.30;1.15;;;20.50;77.40;;;;;;4997265;28;20214;-67
2024/02/16 00:32:34;;;;;;;1.65;1.20;;;20.40;77.10;;;;;;5001084;28;20799;-68
2024/02/16 00:35:01;;;;;;;1.65;1.25;;;20.40;77.30;;;;;;4996446;28;20199;-67
2024/02/16 00:37:27;;;;;;;2.03;1.30;;;20.40;77.20;;;;;;4999960;28;20231;-68
2024/02/16 00:40:02;;;;;;;1.27;0.95;;;20.40;77.00;;;;;;4992592;28;20604;-67
2024/02/16 00:42:31;;;;;;;1.15;0.98;;;20.40;77.20;;;;;;4996287;28;20286;-67
2024/02/16 00:45:04;;;;;;;1.75;1.13;;;20.40;77.20;;;;;;4988226;28;20253;-67
2024/02/16 00:47:32;;;;;;;1.35;0.90;;;20.40;77.00;;;;;;4987302;28;20302;-67
2024/02/16 00:50:03;;;;;;;1.70;0.93;;;20.40;77.20;;;;;;4994127;28;20199;-67
2024/02/16 00:55:22;;;;;;;1.67;1.20;;;20.40;77.00;;;;;;4996485;28;20204;-67
2024/02/16 00:58:05;;;;;;;1.60;1.00;;;20.40;77.10;;;;;;5001006;28;20230;-67
2024/02/16 01:00:32;;;;;;;1.77;1.20;;;20.40;77.10;;;;;;4997037;28;20195;-67
2024/02/16 01:02:59;;;;;;;1.63;1.08;;;20.40;77.00;;;;;;5004466;28;20203;-67
2024/02/16 01:05:28;;;;;;;1.30;1.20;;;20.40;77.10;;;;;;5003135;28;20212;-67
2024/02/16 01:07:58;;;;;;;1.50;1.10;;;20.40;77.20;;;;;;5005038;28;20227;-67
2024/02/16 01:10:34;;;;;;;1.20;1.10;;;20.40;77.30;;;;;;5003555;28;20766;-67
2024/02/16 01:13:21;;;;;;;1.05;0.95;;;20.40;77.00;;;;;;5003608;28;20207;-68
2024/02/16 01:15:52;;;;;;;1.60;1.17;;;20.30;77.00;;;;;;5006279;28;20200;-67
2024/02/16 01:18:24;;;;;;;1.25;1.13;;;20.30;76.90;;;;;;5003976;28;20255;-67
2024/02/16 01:20:51;;;;;;;1.95;1.30;;;20.30;77.00;;;;;;5003493;28;20228;-68
2024/02/16 01:23:22;;;;;;;1.20;0.98;;;20.30;77.10;;;;;;5004469;28;20195;-67
2024/02/16 01:25:52;;;;;;;1.10;1.00;;;20.30;77.00;;;;;;5004021;28;20196;-67
2024/02/16 01:28:24;;;;;;;1.85;1.02;;;20.30;77.00;;;;;;5003003;28;20226;-67
2024/02/16 01:30:51;;;;;;;1.42;1.20;;;20.30;77.10;;;;;;5006133;28;20263;-67
2024/02/16 01:33:21;;;;;;;1.42;1.17;;;20.20;76.90;;;;;;5003606;28;20615;-67
2024/02/16 01:35:49;;;;;;;1.00;0.80;;;20.30;77.00;;;;;;4999313;28;20655;-68
2024/02/16 01:38:20;;;;;;;1.27;1.00;;;20.30;77.10;;;;;;5002941;28;20232;-67
2024/02/16 01:40:51;;;;;;;1.20;0.90;;;20.30;77.00;;;;;;5002404;28;20653;-67
2024/02/16 01:43:21;;;;;;;1.20;1.10;;;20.20;76.90;;;;;;4994083;28;20210;-68
2024/02/16 01:45:51;;;;;;;1.60;0.90;;;20.20;76.90;;;;;;4999970;28;21802;-67
2024/02/16 01:48:21;;;;;;;1.30;1.00;;;20.20;76.90;;;;;;4995445;28;20219;-67
2024/02/16 01:50:56;;;;;;;1.48;1.08;;;20.30;76.90;;;;;;4994642;28;21296;-67
2024/02/16 01:53:31;;;;;;;1.40;1.00;;;20.20;76.80;;;;;;4991209;28;20330;-68
2024/02/16 01:56:03;;;;;;;1.25;1.10;;;20.20;76.80;;;;;;4994103;28;20538;-67
2024/02/16 01:58:37;;;;;;;1.10;0.90;;;20.20;76.90;;;;;;5003030;28;20203;-67
2024/02/16 02:01:06;;;;;;;1.40;0.90;;;20.20;76.90;;;;;;5002258;28;20271;-67
2024/02/16 02:03:33;;;;;;;1.20;1.02;;;20.20;76.90;;;;;;4998011;28;20852;-67
2024/02/16 02:06:02;;;;;;;1.58;1.10;;;20.20;76.80;;;;;;4995867;28;20206;-67
2024/02/16 02:08:42;;;;;;;1.17;0.95;;;20.20;76.90;;;;;;5002312;28;20273;-67
2024/02/16 02:11:09;;;;;;;1.75;0.90;;;20.20;77.00;;;;;;5002641;28;20196;-67
2024/02/16 02:13:41;;;;;;;1.52;0.90;;;20.10;76.70;;;;;;4996419;28;20198;-68
2024/02/16 02:16:14;;;;;;;1.92;1.20;;;20.20;77.00;;;;;;4993656;28;20793;-67
2024/02/16 02:18:46;;;;;;;1.50;1.00;;;20.10;76.80;;;;;;4995473;28;20203;-68
2024/02/16 02:21:14;;;;;;;1.30;1.10;;;20.10;76.90;;;;;;5000198;28;20199;-67
2024/02/16 02:23:42;;;;;;;1.95;1.00;;;20.10;76.90;;;;;;4996874;28;20341;-68
2024/02/16 02:26:13;;;;;;;1.83;1.13;;;20.10;76.70;;;;;;5002802;28;20219;-67
2024/02/16 02:28:41;;;;;;;1.42;1.20;;;20.10;76.80;;;;;;4995338;28;20567;-67
2024/02/16 02:31:10;;;;;;;1.15;1.00;;;20.10;76.80;;;;;;4999575;28;20398;-68
2024/02/16 02:33:40;;;;;;;1.17;0.90;;;20.10;76.90;;;;;;4997301;28;20207;-68
2024/02/16 02:36:10;;;;;;;2.85;1.20;;;20.10;76.80;;;;;;4994559;28;20203;-67
2024/02/16 02:38:45;;;;;;;1.40;1.10;;;20.10;76.90;;;;;;4991839;28;20207;-68
2024/02/16 02:41:19;;;;;;;1.15;0.90;;;20.10;76.80;;;;;;4990038;28;20804;-68
2024/02/16 02:43:46;;;;;;;1.38;0.90;;;20.10;76.70;;;;;;4991886;28;20195;-67
2024/02/16 02:46:17;;;;;;;1.00;0.80;;;20.10;76.60;;;;;;4996739;28;20298;-68
2024/02/16 02:48:45;;;;;;;1.00;0.80;;;20.10;76.90;;;;;;4988827;28;20958;-67
2024/02/16 02:51:21;;;;;;;2.13;1.15;;;20.10;76.80;;;;;;4993554;28;20204;-67
2024/02/16 02:53:56;;;;;;;1.00;0.85;;;20.10;76.80;;;;;;4986800;28;20196;-67
2024/02/16 02:56:23;;;;;;;1.27;0.93;;;20.10;76.80;;;;;;4991074;28;20204;-68
2024/02/16 02:58:51;;;;;;;1.45;1.00;;;20.10;76.70;;;;;;4999423;28;20852;-67
2024/02/16 03:01:20;;;;;;;1.17;0.90;;;20.00;76.60;;;;;;4999674;28;20200;-67
2024/02/16 03:03:47;;;;;;;1.52;1.33;;;20.00;76.70;;;;;;4994138;28;20206;-67
2024/02/16 03:06:13;;;;;;;1.00;0.80;;;20.00;76.60;;;;;;4998180;28;20228;-67
2024/02/16 03:08:40;;;;;;;1.55;1.10;;;20.00;76.50;;;;;;5000090;28;20219;-68
2024/02/16 03:11:10;;;;;;;1.38;1.02;;;20.00;76.60;;;;;;4991352;28;20200;-67
2024/02/16 03:13:44;;;;;;;1.10;0.80;;;20.00;76.70;;;;;;4999182;28;20192;-67
2024/02/16 03:16:18;;;;;;;1.48;1.38;;;20.00;76.70;;;;;;4999556;28;20350;-67
2024/02/16 03:18:51;;;;;;;1.20;1.00;;;19.90;76.80;;;;;;4992148;28;20306;-67
2024/02/16 03:21:18;;;;;;;1.10;0.80;;;20.00;76.70;;;;;;4998044;28;20208;-67
2024/02/16 03:23:47;;;;;;;1.50;1.00;;;20.00;76.80;;;;;;4996537;28;20204;-67
2024/02/16 03:26:21;;;;;;;1.20;0.80;;;20.00;76.70;;;;;;4994813;28;20212;-67
2024/02/16 03:28:56;;;;;;;1.33;1.15;;;19.90;76.80;;;;;;4996562;28;20822;-67
2024/02/16 03:31:25;;;;;;;1.40;1.10;;;19.90;76.90;;;;;;4998393;28;20364;-67
2024/02/16 03:33:56;;;;;;;1.35;1.10;;;19.90;76.70;;;;;;4992660;28;20338;-68
2024/02/16 03:36:27;;;;;;;1.15;0.88;;;19.90;76.80;;;;;;4999123;28;20196;-67
2024/02/16 03:38:57;;;;;;;1.30;1.00;;;19.90;76.80;;;;;;4994738;28;20504;-67
2024/02/16 03:41:27;;;;;;;1.00;0.90;;;19.90;76.60;;;;;;4978052;28;20200;-68
2024/02/16 03:43:57;;;;;;;1.15;1.05;;;19.90;76.70;;;;;;4981264;28;20734;-67
2024/02/16 03:46:33;;;;;;;1.17;0.80;;;19.90;76.60;;;;;;4982292;28;20201;-67
2024/02/16 03:48:59;;;;;;;1.02;0.80;;;19.90;76.80;;;;;;4986689;28;20752;-67
2024/02/16 03:51:30;;;;;;;1.45;1.00;;;19.90;76.80;;;;;;4987371;28;20214;-67
2024/02/16 03:53:59;;;;;;;1.65;0.88;;;19.90;76.80;;;;;;4992248;28;20200;-67
2024/02/16 03:56:34;;;;;;;1.00;0.80;;;19.90;76.70;;;;;;4984750;28;20203;-68
2024/02/16 03:59:01;;;;;;;1.13;0.95;;;19.90;76.80;;;;;;4990771;28;20290;-67
2024/02/16 04:01:27;;;;;;;1.10;0.90;;;19.90;77.00;;;;;;4997817;28;20199;-68
2024/02/16 04:04:00;;;;;;;1.50;1.00;;;19.90;76.80;;;;;;4990891;28;20211;-67
2024/02/16 04:06:32;;;;;;;1.25;0.95;;;19.90;76.80;;;;;;4996590;28;20223;-67
2024/02/16 04:09:01;;;;;;;1.20;1.10;;;19.90;77.00;;;;;;5000495;28;20249;-67
2024/02/16 04:11:32;;;;;;;1.30;1.08;;;19.90;77.00;;;;;;4995337;28;20210;-67
2024/02/16 04:14:01;;;;;;;1.35;1.25;;;19.90;76.80;;;;;;4997794;28;20235;-67
2024/02/16 04:16:28;;;;;;;1.23;0.90;;;19.90;76.90;;;;;;4995781;28;20487;-68
2024/02/16 04:18:56;;;;;;;1.00;0.90;;;19.80;76.80;;;;;;4996455;28;20207;-68
2024/02/16 04:21:27;;;;;;;1.38;1.00;;;19.90;76.80;;;;;;4996974;28;20204;-67
2024/02/16 04:23:54;;;;;;;1.48;1.00;;;19.80;76.90;;;;;;4995025;28;20390;-67
2024/02/16 04:26:35;;;;;;;1.10;0.90;;;19.80;76.90;;;;;;4993296;28;20199;-67
2024/02/16 04:29:06;;;;;;;2.05;1.10;;;19.80;77.00;;;;;;4998113;28;20215;-67
2024/02/16 04:31:42;;;;;;;1.55;1.45;;;19.80;77.00;;;;;;4991839;28;20195;-67
2024/02/16 04:34:11;;;;;;;1.40;1.15;;;19.80;76.70;;;;;;4986880;28;20200;-67
2024/02/16 04:36:39;;;;;;;1.80;1.08;;;19.80;76.70;;;;;;4995465;28;20196;-67
2024/02/16 04:39:09;;;;;;;1.50;1.00;;;19.80;76.80;;;;;;4995004;28;20207;-67
2024/02/16 04:41:39;;;;;;;1.20;0.90;;;19.80;76.80;;;;;;4992994;28;20803;-67
2024/02/16 04:44:11;;;;;;;0.95;0.80;;;19.80;77.00;;;;;;4997219;28;20211;-67
2024/02/16 04:46:40;;;;;;;1.10;0.88;;;19.80;77.10;;;;;;4993803;28;20679;-68
2024/02/16 04:49:07;;;;;;;1.15;0.95;;;19.80;76.90;;;;;;4993945;28;20597;-67
2024/02/16 04:51:39;;;;;;;1.00;0.90;;;19.80;77.00;;;;;;4997198;28;20466;-67
2024/02/16 04:54:06;;;;;;;1.55;0.95;;;19.80;76.90;;;;;;4999142;28;20195;-68
2024/02/16 04:56:34;;;;;;;1.08;0.80;;;19.80;76.90;;;;;;4988532;28;21670;-68
2024/02/16 04:59:09;;;;;;;1.25;1.00;;;19.80;77.00;;;;;;5000357;28;20659;-67
2024/02/16 05:01:49;;;;;;;1.10;0.90;;;19.80;77.00;;;;;;4996034;28;20636;-67
2024/02/16 05:04:21;;;;;;;1.10;0.90;;;19.80;77.10;;;;;;4999007;28;20208;-67
2024/02/16 05:06:49;;;;;;;1.00;0.80;;;19.70;76.80;;;;;;5002513;28;20204;-67
2024/02/16 05:09:17;;;;;;;1.50;1.00;;;19.70;76.90;;;;;;5005171;28;20624;-67
2024/02/16 05:11:51;;;;;;;1.08;0.82;;;19.70;76.70;;;;;;5000607;28;20569;-67
2024/02/16 05:14:23;;;;;;;1.13;0.80;;;19.70;76.90;;;;;;5002662;28;20200;-68
2024/02/16 05:16:50;;;;;;;1.08;0.90;;;19.70;77.00;;;;;;5001842;28;20204;-67
2024/02/16 05:19:20;;;;;;;1.25;0.80;;;19.80;77.00;;;;;;5002766;28;20303;-68
2024/02/16 05:21:49;;;;;;;1.27;1.00;;;19.70;76.90;;;;;;5002267;28;20219;-67
2024/02/16 05:24:22;;;;;;;1.20;0.88;;;19.70;77.00;;;;;;5001403;28;20208;-67
2024/02/16 05:26:51;;;;;;;1.15;0.88;;;19.70;77.00;;;;;;5003572;28;20545;-67
2024/02/16 05:29:26;;;;;;;1.27;0.90;;;19.70;76.70;;;;;;4998219;28;20230;-68
2024/02/16 05:31:53;;;;;;;1.52;0.90;;;19.70;77.00;;;;;;4993793;28;20196;-67
2024/02/16 05:34:20;;;;;;;1.60;1.00;;;19.70;76.90;;;;;;4998192;28;20200;-67
2024/02/16 05:36:53;;;;;;;1.00;0.85;;;19.70;77.00;;;;;;4989573;28;20210;-68
2024/02/16 05:39:31;;;;;;;1.10;0.90;;;19.70;77.00;;;;;;4993785;28;20207;-67
2024/02/16 05:42:00;;;;;;;1.67;1.00;;;19.70;76.90;;;;;;4988364;28;20711;-67
2024/02/16 05:44:32;;;;;;;1.23;0.90;;;19.70;77.00;;;;;;4982794;28;20196;-67
2024/02/16 05:47:04;;;;;;;1.92;1.40;;;19.70;77.00;;;;;;4994267;28;20196;-67
2024/02/16 05:49:31;;;;;;;1.30;0.90;;;19.70;77.00;;;;;;4984991;28;20517;-68
2024/02/16 05:54:41;;;;;;;1.30;1.00;;;19.70;76.90;;;;;;4983149;28;20226;-67
2024/02/16 05:57:09;;;;;;;1.20;0.90;;;19.70;77.90;;;;;;4987564;28;20352;-67
2024/02/16 05:59:40;;;;;;;1.15;0.93;;;19.70;77.00;;;;;;4990737;28;20215;-67
2024/02/16 06:02:15;;;;;;;0.95;0.75;;;19.70;77.20;;;;;;4986145;28;20875;-67
2024/02/16 06:04:44;;;;;;;2.33;1.35;;;19.70;77.10;;;;;;4982242;28;20202;-67
2024/02/16 06:07:13;;;;;;;1.08;0.85;;;19.70;77.10;;;;;;4987643;28;20194;-68
2024/02/16 06:09:43;;;;;;;1.00;0.90;;;19.70;77.30;;;;;;4983055;28;20224;-67
2024/02/16 06:12:15;;;;;;;1.33;1.20;;;19.60;77.00;;;;;;4981045;28;20210;-68
2024/02/16 06:14:45;;;;;;;1.00;0.80;;;19.60;77.00;;;;;;4981016;28;20222;-67
2024/02/16 06:17:14;;;;;;;1.10;0.90;;;19.60;77.00;;;;;;4984446;28;20200;-67
2024/02/16 06:19:45;;;;;;;1.20;0.90;;;19.60;77.10;;;;;;4987864;28;20199;-67
2024/02/16 06:22:17;;;;;;;1.40;0.90;;;19.60;77.10;;;;;;4992376;28;20871;-67
2024/02/16 06:24:46;;;;;;;1.00;0.90;;;19.60;77.30;;;;;;4992928;28;20207;-67
2024/02/16 06:27:15;;;;;;;1.27;1.00;;;19.60;77.30;;;;;;4990407;28;20214;-68
2024/02/16 06:29:47;;;;;;;1.10;1.00;;;19.60;77.20;;;;;;4992298;28;20224;-68
2024/02/16 06:32:21;;;;;;;1.60;0.80;;;19.60;77.10;;;;;;4992185;28;20196;-67
2024/02/16 06:34:47;;;;;;;1.33;1.00;;;19.60;77.20;;;;;;4989252;28;20199;-68
2024/02/16 06:37:17;;;;;;;1.30;1.00;;;19.60;77.00;;;;;;4988628;28;20204;-67
2024/02/16 06:39:44;;;;;;;1.17;0.98;;;19.60;77.20;;;;;;4991784;28;20202;-67
2024/02/16 06:42:18;;;;;;;1.35;1.08;;;19.60;77.10;;;;;;4992806;28;20656;-67
2024/02/16 06:44:50;;;;;;;1.15;1.00;;;19.60;77.10;;;;;;4990634;28;20206;-67
2024/02/16 06:47:18;;;;;;;2.35;0.90;;;19.60;77.10;;;;;;4993670;28;20200;-67
2024/02/16 06:49:48;;;;;;;1.10;0.90;;;19.60;77.10;;;;;;4990729;28;20728;-67
2024/02/16 06:52:19;;;;;;;1.20;0.90;;;19.60;77.00;;;;;;4992343;28;20672;-67
2024/02/16 06:54:54;;;;;;;1.08;0.80;;;19.60;77.30;;;;;;4994351;28;21280;-67
2024/02/16 06:57:22;;;;;;;1.52;0.95;;;19.60;77.00;;;;;;4989000;28;20199;-67
2024/02/16 06:59:57;;;;;;;0.95;0.70;;;19.50;77.30;;;;;;4998597;28;20201;-67
2024/02/16 07:02:30;;;;;;;0.93;0.73;;;19.60;77.30;;;;;;4995444;28;20258;-69
2024/02/16 07:05:04;;;;;;;1.00;0.80;;;19.60;77.40;;;;;;5001373;28;20204;-69
2024/02/16 07:07:32;;;;;;;1.00;0.70;;;19.60;77.30;;;;;;4995447;28;20290;-69
2024/02/16 07:10:05;;;;;;;1.10;0.90;;;19.60;77.20;;;;;;4996321;28;20219;-69
2024/02/16 07:12:33;;;;;;;1.00;0.80;;;19.60;77.10;;;;;;5001394;28;20287;-69
2024/02/16 07:15:02;;;;;;;1.35;1.10;;;19.60;77.30;;;;;;5000511;28;20690;-69
2024/02/16 07:17:38;;;;;;;1.20;0.90;;;19.50;77.20;;;;;;4999438;28;20259;-69
2024/02/16 07:20:15;;;;;;;1.10;0.90;;;19.50;77.00;;;;;;4987724;28;20314;-69
2024/02/16 07:22:51;;;;;;;1.00;0.80;;;19.50;77.10;;;;;;5001224;28;20210;-69
2024/02/16 07:25:24;;;;;;;1.00;0.70;;;19.50;77.00;;;;;;4996848;28;20234;-69
2024/02/16 07:27:53;;;;;;;1.10;0.80;;;19.50;77.10;;;;;;4999845;28;20204;-69
2024/02/16 07:30:21;;;;;;;1.10;1.00;;;19.50;77.10;;;;;;5001954;28;20781;-69
2024/02/16 07:32:50;;;;;;;1.17;0.85;;;19.50;77.10;;;;;;4991418;28;20205;-70
2024/02/16 07:35:21;;;;;;;1.20;0.85;;;19.50;77.50;;;;;;4997459;28;20204;-69
2024/02/16 07:37:49;;;;;;;1.20;0.80;;;19.50;77.50;;;;;;4990713;28;20204;-69
2024/02/16 07:40:18;;;;;;;1.58;1.00;;;19.60;77.70;;;;;;4995744;28;20211;-69
2024/02/16 07:42:51;;;;;;;1.10;0.70;;;19.60;77.80;;;;;;4995988;28;20199;-69
2024/02/16 07:45:20;;;;;;;1.00;0.80;;;19.60;77.90;;;;;;4993327;28;20231;-69
2024/02/16 07:47:51;;;;;;;1.20;0.90;;;19.60;77.90;;;;;;4986612;28;20234;-69
2024/02/16 07:50:24;;;;;;;1.10;0.90;;;19.60;78.00;;;;;;4988490;28;20319;-69
2024/02/16 07:52:53;;;;;;;2.13;1.00;;;19.70;78.10;;;;;;4986655;28;20203;-69
2024/02/16 07:55:22;;;;;;;1.10;0.90;;;19.70;78.10;;;;;;4992913;28;20874;-69
2024/02/16 07:57:53;;;;;;;1.92;1.00;;;19.70;78.00;;;;;;4995645;28;20262;-69
2024/02/16 08:00:26;;;;;;;1.73;0.82;;;19.70;78.00;;;;;;4984323;28;20204;-69
2024/02/16 08:02:56;;;;;;;1.10;0.80;;;19.70;77.90;;;;;;4993617;28;20827;-69
2024/02/16 08:05:24;;;;;;;1.00;0.70;;;19.80;78.00;;;;;;4993340;28;20218;-69
2024/02/16 08:07:55;;;;;;;1.00;0.77;;;19.80;78.00;;;;;;4997021;28;20652;-69
2024/02/16 08:10:25;;;;;;;1.55;0.80;;;19.80;78.00;;;;;;4994620;28;20281;-69
2024/02/16 08:12:58;;;;;;;1.20;1.00;;;19.80;77.90;;;;;;4998154;28;20203;-69
2024/02/16 08:15:26;;;;;;;1.00;0.75;;;19.80;77.80;;;;;;4992988;28;20465;-69
2024/02/16 08:17:55;;;;;;;1.20;0.80;;;19.80;77.80;;;;;;4997375;28;20208;-69
2024/02/16 08:20:26;;;;;;;1.33;0.90;;;19.90;77.80;;;;;;4988472;28;20622;-69
2024/02/16 08:22:52;;;;;;;0.90;0.70;;;19.90;77.80;;;;;;4992408;28;20204;-69
2024/02/16 08:25:20;;;;;;;1.23;0.80;;;19.90;77.90;;;;;;4993464;28;20212;-69
2024/02/16 08:27:51;;;;;;;1.00;0.75;;;19.90;77.90;;;;;;4995759;28;20204;-69
2024/02/16 08:30:18;;;;;;;1.00;0.80;;;19.90;77.70;;;;;;4990872;28;20219;-69
2024/02/16 08:32:48;;;;;;;1.45;1.35;;;19.90;77.70;;;;;;4995509;28;20708;-69
2024/02/16 08:35:27;;;;;;;1.10;0.77;;;19.90;77.70;;;;;;4992884;28;20196;-69
2024/02/16 08:37:57;;;;;;;1.00;0.77;;;19.90;77.70;;;;;;4999297;28;20242;-69
2024/02/16 08:40:26;;;;;;;1.17;0.90;;;19.90;77.60;;;;;;4989651;28;20202;-69
2024/02/16 08:42:52;;;;;;;1.05;0.80;;;19.90;77.60;;;;;;4989547;28;20196;-69
2024/02/16 08:45:27;;;;;;;1.23;0.80;;;19.90;77.50;;;;;;4983586;28;20200;-69
2024/02/16 08:47:54;;;;;;;1.15;1.00;;;19.90;77.60;;;;;;4995298;28;20596;-69
2024/02/16 08:50:25;;;;;;;1.30;0.77;;;19.90;77.60;;;;;;4993083;28;20421;-69
2024/02/16 08:52:56;;;;;;;1.17;1.08;;;19.90;77.60;;;;;;4986868;28;20660;-69
2024/02/16 08:55:26;;;;;;;1.40;0.75;;;19.90;77.80;;;;;;4988671;28;20200;-70
2024/02/16 08:58:12;;;;;;;1.15;0.80;;;19.90;77.60;;;;;;4994436;28;20749;-69
2024/02/16 09:00:40;;;;;;;3.65;1.00;;;19.90;77.60;;;;;;4987864;28;20204;-67
2024/02/16 09:03:25;;;;;;;3.25;2.95;;;19.90;77.90;;;;;;4990469;28;20735;-66
2024/02/16 09:05:54;;;;;;;0.90;0.70;;;19.90;78.10;;;;;;4990892;28;20559;-66
2024/02/16 09:08:33;;;;;;;1.88;0.90;;;20.00;78.10;;;;;;4995308;28;20200;-64
2024/02/16 09:11:04;;;;;;;1.45;0.70;;;19.90;78.10;;;;;;5002418;28;20227;-65
2024/02/16 09:13:43;;;;;;;1.00;0.88;;;19.90;77.90;;;;;;5004599;28;20198;-64
2024/02/16 09:16:13;;;;;;;1.75;0.80;;;19.90;78.10;;;;;;5000766;28;20212;-66
2024/02/16 09:18:42;;;;;;;2.17;1.48;;;19.90;78.10;;;;;;5003481;28;20199;-66
2024/02/16 09:21:15;;;;;;;1.17;0.90;;;19.90;77.90;;;;;;4994759;28;20192;-66
2024/02/16 09:23:45;;;;;;;1.25;0.73;;;19.90;78.00;;;;;;5002520;28;20235;-64
2024/02/16 09:26:12;;;;;;;1.08;0.90;;;19.90;77.90;;;;;;4999346;28;20208;-64
2024/02/16 09:28:43;;;;;;;1.30;0.70;;;19.90;77.70;;;;;;5003851;28;21054;-65
2024/02/16 09:31:14;;;;;;;1.08;0.70;;;19.90;77.90;;;;;;4999417;28;20454;-66
2024/02/16 09:33:44;;;;;;;0.90;0.80;;;19.90;77.90;;;;;;5003965;28;20661;-66
2024/02/16 09:36:14;;;;;;;0.90;0.70;;;19.90;77.90;;;;;;4987093;28;21000;-65
2024/02/16 09:38:41;;;;;;;1.55;0.80;;;19.90;77.90;;;;;;4992952;28;20200;-65
2024/02/16 09:41:08;;;;;;;1.10;0.70;;;19.90;78.10;;;;;;4989870;28;20224;-64
2024/02/16 09:43:37;;;;;;;1.10;0.80;;;19.90;77.90;;;;;;4997816;28;20200;-65
2024/02/16 09:46:11;;;;;;;0.90;0.70;;;19.90;77.90;;;;;;4987839;28;21487;-65
2024/02/16 09:48:43;;;;;;;2.17;1.20;;;19.90;77.90;;;;;;4991495;28;20483;-66
2024/02/16 09:51:12;;;;;;;1.50;0.80;;;19.90;77.90;;;;;;4978646;28;20231;-65
2024/02/16 09:53:56;;;;;;;1.00;0.80;;;19.90;77.90;;;;;;4992841;28;20656;-64
2024/02/16 09:56:27;;;;;;;2.45;0.95;;;20.00;78.00;;;;;;5000927;28;20200;-65
2024/02/16 09:59:08;;;;;;;2.80;0.80;;;20.00;78.10;;;;;;4996301;28;20196;-64
2024/02/16 10:01:38;;;;;;;1.13;0.90;;;20.00;78.10;;;;;;4987104;28;20607;-65
2024/02/16 10:04:15;;;;;;;1.00;0.70;;;20.00;78.10;;;;;;4984887;28;20316;-66
2024/02/16 10:06:48;;;;;;;1.20;0.90;;;20.00;78.10;;;;;;4975065;28;20195;-67
2024/02/16 10:09:25;;;;;;;1.67;0.80;;;20.00;78.30;;;;;;4986537;28;20199;-66
2024/02/16 10:12:02;;;;;;;1.30;0.90;;;20.00;78.40;;;;;;4991720;28;20226;-66
2024/02/16 10:14:31;;;;;;;2.75;1.10;;;20.00;78.60;;;;;;4989761;28;20210;-64
2024/02/16 10:17:09;;;;;;;1.20;1.00;;;20.10;78.40;;;;;;4991014;28;20209;-64
2024/02/16 10:19:39;;;;;;;3.50;0.80;;;20.10;79.00;;;;;;4993207;28;20202;-66
2024/02/16 10:22:11;;;;;;;2.85;0.70;;;20.10;79.00;;;;;;4994582;28;20201;-66
2024/02/16 10:24:43;;;;;;;0.90;0.70;;;20.10;79.30;;;;;;4994055;28;20211;-61
2024/02/16 10:27:20;;;;;;;2.85;0.90;;;20.10;79.40;;;;;;4984765;28;20289;-63
2024/02/16 10:29:50;;;;;;;1.10;0.80;;;20.10;79.50;;;;;;4993330;28;20756;-61
2024/02/16 10:32:28;;;;;;;5.57;1.08;;;20.10;79.90;;;;;;4989713;28;20736;-62
2024/02/16 10:35:05;;;;;;;1.20;0.90;;;20.10;79.70;;;;;;4982370;28;20200;-62
2024/02/16 10:37:51;;;;;;;1.65;0.80;;;20.10;79.90;;;;;;4988195;28;20203;-62
2024/02/16 10:40:21;;;;;;;1.27;0.80;;;20.20;80.30;;;;;;4989705;28;20365;-58
2024/02/16 10:42:51;;;;;;;1.00;0.70;;;20.20;80.90;;;;;;4990696;28;20207;-60
2024/02/16 10:45:25;;;;;;;2.50;1.10;;;20.20;81.00;;;;;;4991882;28;20215;-60
2024/02/16 10:47:52;;;;;;;1.13;0.85;;;20.20;81.30;;;;;;4993745;28;20290;-58
2024/02/16 10:50:21;;;;;;;1.00;0.70;;;20.20;81.40;;;;;;4995244;28;20208;-59
2024/02/16 10:52:53;;;;;;;1.30;0.90;;;20.20;81.40;;;;;;4996085;28;20204;-61
2024/02/16 10:55:26;;;;;;;2.22;0.85;;;20.30;81.20;;;;;;4996383;28;20207;-61
2024/02/16 10:57:58;;;;;;;1.75;1.00;;;20.30;81.20;;;;;;4995921;28;20637;-59
2024/02/16 11:00:46;;;;;;;1.15;0.80;;;20.40;81.30;;;;;;4999649;28;20783;-61
2024/02/16 11:03:32;;;;;;;1.20;0.90;;;20.40;81.00;;;;;;4997836;28;20196;-61
2024/02/16 11:06:00;;;;;;;1.52;0.90;;;20.40;81.20;;;;;;4995740;28;20583;-62
2024/02/16 11:08:28;;;;;;;1.95;0.80;;;20.40;81.30;;;;;;5000669;28;20199;-59
2024/02/16 11:11:13;;;;;;;1.00;0.75;;;20.40;81.50;;;;;;4997364;28;20615;-61
2024/02/16 11:13:40;;;;;;;1.00;0.90;;;20.40;81.50;;;;;;4999830;28;20203;-59
2024/02/16 11:16:08;;;;;;;1.60;0.88;;;20.40;81.70;;;;;;5004684;28;20195;-58
2024/02/16 11:18:43;;;;;;;5.32;1.55;;;20.50;81.70;;;;;;4993381;28;20203;-62
2024/02/16 11:21:23;;;;;;;1.10;0.70;;;20.50;81.60;;;;;;5000156;28;20208;-60
2024/02/16 11:24:09;;;;;;;1.00;0.80;;;20.50;81.70;;;;;;5002541;28;20497;-60
2024/02/16 11:26:52;;;;;;;1.00;0.60;;;20.60;81.80;;;;;;4996027;28;20258;-60
2024/02/16 11:29:22;;;;;;;1.10;0.70;;;20.60;81.70;;;;;;5001818;28;20203;-60
2024/02/16 11:31:50;;;;;;;1.90;0.90;;;20.60;81.70;;;;;;5004884;28;20224;-60
2024/02/16 11:34:26;;;;;;;1.20;0.80;;;20.60;81.50;;;;;;4999783;28;20196;-61
2024/02/16 11:36:55;;;;;;;1.05;0.80;;;20.70;81.70;;;;;;4999768;28;20474;-59
2024/02/16 11:39:31;;;;;;;1.10;0.90;;;20.70;81.60;;;;;;4997445;28;20196;-62
2024/02/16 11:42:03;;;;;;;1.20;0.93;;;20.80;81.60;;;;;;4993979;28;20204;-59
2024/02/16 11:44:31;;;;;;;1.00;0.73;;;20.80;81.50;;;;;;4998898;28;20210;-59
2024/02/16 11:47:10;;;;;;;1.40;1.00;;;20.80;81.40;;;;;;5000987;28;20208;-59
2024/02/16 11:49:39;;;;;;;1.10;0.95;;;20.90;82.20;;;;;;5000065;28;20204;-63
2024/02/16 11:52:06;;;;;;;1.00;0.80;;;20.80;81.20;;;;;;4998330;28;20365;-60
2024/02/16 11:54:33;;;;;;;1.10;0.80;;;20.90;81.40;;;;;;4998979;28;20210;-64
2024/02/16 11:57:14;;;;;;;2.00;0.90;;;20.90;81.30;;;;;;5002626;28;20843;-63
2024/02/16 11:59:45;;;;;;;1.20;0.88;;;20.90;81.20;;;;;;5001319;28;20757;-58
2024/02/16 12:02:20;;;;;;;1.13;0.80;;;20.90;81.10;;;;;;4998817;28;20221;-59
2024/02/16 12:05:04;;;;;;;2.38;0.80;;;21.00;81.20;;;;;;5006189;28;20191;-56
2024/02/16 12:07:35;;;;;;;1.10;0.90;;;21.00;81.10;;;;;;5007076;28;20199;-61
2024/02/16 12:10:10;;;;;;;1.70;0.90;;;21.00;81.10;;;;;;5002304;28;20192;-58
2024/02/16 12:12:51;;;;;;;1.60;0.90;;;21.00;81.00;;;;;;5004474;28;20841;-58
2024/02/16 12:15:23;;;;;;;1.23;0.80;;;21.10;81.10;;;;;;5003960;28;20223;-60
2024/02/16 12:18:02;;;;;;;1.00;0.70;;;21.10;81.00;;;;;;5005288;28;20500;-59
2024/02/16 12:20:37;;;;;;;1.10;0.90;;;21.10;80.80;;;;;;4997712;28;20977;-62
2024/02/16 12:23:13;;;;;;;1.00;0.70;;;21.10;80.80;;;;;;4998160;28;20505;-64
2024/02/16 12:25:44;;;;;;;1.00;0.80;;;21.20;80.80;;;;;;5001153;28;20549;-62
2024/02/16 12:28:17;;;;;;;1.08;0.80;;;21.20;80.60;;;;;;4999745;28;20198;-61
2024/02/16 12:30:51;;;;;;;1.00;0.70;;;21.20;80.60;;;;;;5001243;28;20584;-59
2024/02/16 12:33:21;;;;;;;1.35;0.77;;;21.20;80.60;;;;;;5000121;28;20203;-58
2024/02/16 12:35:57;;;;;;;1.23;0.90;;;21.20;80.60;;;;;;5000797;28;20196;-60
2024/02/16 12:38:25;;;;;;;1.10;0.80;;;21.20;80.50;;;;;;4999626;28;20486;-60
2024/02/16 12:40:54;;;;;;;1.27;0.87;;;21.20;80.40;;;;;;5000175;28;20504;-62
2024/02/16 12:43:24;;;;;;;1.40;0.70;;;21.20;80.60;;;;;;4997063;28;20469;-64
2024/02/16 12:45:53;;;;;;;1.00;0.90;;;21.30;81.40;;;;;;5004301;28;20501;-61
2024/02/16 12:48:25;;;;;;;1.00;0.80;;;21.20;80.60;;;;;;5001143;28;20459;-64
2024/02/16 12:50:57;;;;;;;1.00;0.70;;;21.30;80.70;;;;;;4993254;28;20642;-62
2024/02/16 12:53:36;;;;;;;1.43;0.83;;;21.20;80.50;;;;;;4993926;28;20458;-62
2024/02/16 12:56:11;;;;;;;1.10;0.70;;;21.30;80.60;;;;;;4998371;28;20465;-62
2024/02/16 12:58:56;;;;;;;1.10;0.80;;;21.30;80.50;;;;;;4999278;28;21316;-62
2024/02/16 13:01:33;;;;;;;1.10;0.80;;;21.30;80.60;;;;;;5001988;28;20466;-63
2024/02/16 13:04:07;;;;;;;1.10;0.80;;;21.30;80.50;;;;;;5000656;28;20465;-62
2024/02/16 13:06:35;;;;;;;1.10;0.70;;;21.30;80.60;;;;;;5005573;28;20204;-62
2024/02/16 13:09:05;;;;;;;4.18;0.90;;;21.30;80.50;;;;;;5004084;28;20902;-65
2024/02/16 13:14:16;;;;;;;1.87;1.27;;;21.30;79.80;;;;;;4993163;28;20746;-65
2024/02/16 13:16:43;;;;;;;2.03;1.53;;;21.30;78.90;;;;;;5002595;28;20476;-65
2024/02/16 13:19:14;;;;;;;2.30;1.37;;;21.30;78.70;;;;;;4996046;28;20458;-66